sensor_id;sensor_type;location;lat;lon;timestamp;P1;durP1;ratioP1;P2;durP2;ratioP2
41059;SDS011;26811;53.160;8.202;2022-09-09T00:02:27;111.07;;;33.95;;
41059;SDS011;26811;53.160;8.202;2022-09-09T00:07:35;113.28;;;35.42;;
41059;SDS011;26811;53.160;8.202;2022-09-09T00:12:48;119.30;;;36.88;;
41059;SDS011;26811;53.160;8.202;2022-09-09T00:28:18;127.35;;;38.35;;
41059;SDS011;26811;53.160;8.202;2022-09-09T00:33:22;111.50;;;38.65;;
41059;SDS011;26811;53.160;8.202;2022-09-09T00:38:25;121.22;;;39.35;;
41059;SDS011;26811;53.160;8.202;2022-09-09T00:43:36;133.57;;;38.97;;
41059;SDS011;26811;53.160;8.202;2022-09-09T01:04:41;119.90;;;39.08;;
41059;SDS011;26811;53.160;8.202;2022-09-09T01:09:45;107.85;;;38.22;;
41059;SDS011;26811;53.160;8.202;2022-09-09T01:15:00;115.73;;;39.27;;
41059;SDS011;26811;53.160;8.202;2022-09-09T01:20:10;110.90;;;37.47;;
41059;SDS011;26811;53.160;8.202;2022-09-09T01:30:25;126.95;;;40.17;;
41059;SDS011;26811;53.160;8.202;2022-09-09T01:40:42;126.35;;;39.85;;
41059;SDS011;26811;53.160;8.202;2022-09-09T01:45:42;115.38;;;39.13;;
41059;SDS011;26811;53.160;8.202;2022-09-09T01:50:45;117.28;;;39.42;;
41059;SDS011;26811;53.160;8.202;2022-09-09T02:06:35;121.30;;;40.05;;
41059;SDS011;26811;53.160;8.202;2022-09-09T02:11:39;118.60;;;39.05;;
41059;SDS011;26811;53.160;8.202;2022-09-09T02:16:42;113.50;;;38.42;;
41059;SDS011;26811;53.160;8.202;2022-09-09T02:21:57;121.80;;;39.70;;
41059;SDS011;26811;53.160;8.202;2022-09-09T02:27:01;109.30;;;37.47;;
41059;SDS011;26811;53.160;8.202;2022-09-09T02:32:07;114.15;;;37.88;;
41059;SDS011;26811;53.160;8.202;2022-09-09T02:37:15;120.80;;;37.47;;
41059;SDS011;26811;53.160;8.202;2022-09-09T02:42:19;109.28;;;37.00;;
41059;SDS011;26811;53.160;8.202;2022-09-09T02:57:42;90.63;;;34.28;;
41059;SDS011;26811;53.160;8.202;2022-09-09T03:02:47;99.57;;;36.13;;
41059;SDS011;26811;53.160;8.202;2022-09-09T03:07:47;106.50;;;35.42;;
41059;SDS011;26811;53.160;8.202;2022-09-09T03:12:49;92.17;;;34.87;;
41059;SDS011;26811;53.160;8.202;2022-09-09T03:17:50;101.82;;;35.75;;
41059;SDS011;26811;53.160;8.202;2022-09-09T03:22:52;94.53;;;34.33;;
41059;SDS011;26811;53.160;8.202;2022-09-09T03:27:53;100.22;;;34.55;;
41059;SDS011;26811;53.160;8.202;2022-09-09T03:32:55;90.93;;;33.78;;
41059;SDS011;26811;53.160;8.202;2022-09-09T03:37:55;92.60;;;34.47;;
41059;SDS011;26811;53.160;8.202;2022-09-09T03:42:56;87.75;;;32.30;;
41059;SDS011;26811;53.160;8.202;2022-09-09T03:47:56;82.28;;;31.80;;
41059;SDS011;26811;53.160;8.202;2022-09-09T03:52:57;71.03;;;30.98;;
41059;SDS011;26811;53.160;8.202;2022-09-09T03:57:58;99.40;;;31.17;;
41059;SDS011;26811;53.160;8.202;2022-09-09T04:03:00;85.90;;;32.53;;
41059;SDS011;26811;53.160;8.202;2022-09-09T04:08:01;74.60;;;31.63;;
41059;SDS011;26811;53.160;8.202;2022-09-09T04:13:01;87.82;;;32.10;;
41059;SDS011;26811;53.160;8.202;2022-09-09T04:18:03;75.38;;;30.10;;
41059;SDS011;26811;53.160;8.202;2022-09-09T04:23:03;74.15;;;28.83;;
41059;SDS011;26811;53.160;8.202;2022-09-09T04:28:05;87.57;;;29.27;;
41059;SDS011;26811;53.160;8.202;2022-09-09T04:33:06;74.65;;;27.90;;
41059;SDS011;26811;53.160;8.202;2022-09-09T04:38:07;79.32;;;28.83;;
41059;SDS011;26811;53.160;8.202;2022-09-09T04:43:09;69.97;;;27.35;;
41059;SDS011;26811;53.160;8.202;2022-09-09T04:48:10;82.32;;;29.33;;
41059;SDS011;26811;53.160;8.202;2022-09-09T04:53:10;73.85;;;27.80;;
41059;SDS011;26811;53.160;8.202;2022-09-09T04:58:11;82.25;;;28.48;;
41059;SDS011;26811;53.160;8.202;2022-09-09T05:03:11;77.22;;;28.23;;
41059;SDS011;26811;53.160;8.202;2022-09-09T05:08:12;75.43;;;29.10;;
41059;SDS011;26811;53.160;8.202;2022-09-09T05:13:13;74.68;;;26.60;;
41059;SDS011;26811;53.160;8.202;2022-09-09T05:18:13;74.43;;;27.92;;
41059;SDS011;26811;53.160;8.202;2022-09-09T05:23:14;76.93;;;28.42;;
41059;SDS011;26811;53.160;8.202;2022-09-09T05:28:14;66.95;;;27.50;;
41059;SDS011;26811;53.160;8.202;2022-09-09T05:33:15;66.28;;;25.95;;
41059;SDS011;26811;53.160;8.202;2022-09-09T05:38:15;70.13;;;24.77;;
41059;SDS011;26811;53.160;8.202;2022-09-09T05:43:21;58.20;;;23.27;;
41059;SDS011;26811;53.160;8.202;2022-09-09T05:48:22;56.28;;;22.95;;
41059;SDS011;26811;53.160;8.202;2022-09-09T05:53:23;56.67;;;22.10;;
41059;SDS011;26811;53.160;8.202;2022-09-09T05:58:23;59.20;;;21.40;;
41059;SDS011;26811;53.160;8.202;2022-09-09T06:03:24;50.58;;;18.98;;
41059;SDS011;26811;53.160;8.202;2022-09-09T06:08:24;41.20;;;17.83;;
41059;SDS011;26811;53.160;8.202;2022-09-09T06:13:25;39.25;;;16.73;;
41059;SDS011;26811;53.160;8.202;2022-09-09T06:18:25;43.85;;;17.20;;
41059;SDS011;26811;53.160;8.202;2022-09-09T06:23:27;41.28;;;16.92;;
41059;SDS011;26811;53.160;8.202;2022-09-09T06:28:28;39.28;;;15.20;;
41059;SDS011;26811;53.160;8.202;2022-09-09T06:33:32;41.72;;;14.82;;
41059;SDS011;26811;53.160;8.202;2022-09-09T06:38:34;35.05;;;13.45;;
41059;SDS011;26811;53.160;8.202;2022-09-09T06:43:35;39.17;;;14.23;;
41059;SDS011;26811;53.160;8.202;2022-09-09T06:48:36;39.78;;;16.00;;
41059;SDS011;26811;53.160;8.202;2022-09-09T06:53:38;39.25;;;17.55;;
41059;SDS011;26811;53.160;8.202;2022-09-09T06:58:40;46.53;;;17.83;;
41059;SDS011;26811;53.160;8.202;2022-09-09T07:03:45;46.20;;;18.25;;
41059;SDS011;26811;53.160;8.202;2022-09-09T07:08:48;45.97;;;17.67;;
41059;SDS011;26811;53.160;8.202;2022-09-09T07:14:04;41.25;;;17.13;;
41059;SDS011;26811;53.160;8.202;2022-09-09T07:19:04;34.38;;;14.43;;
41059;SDS011;26811;53.160;8.202;2022-09-09T07:24:05;27.10;;;11.38;;
41059;SDS011;26811;53.160;8.202;2022-09-09T07:29:08;29.52;;;11.25;;
41059;SDS011;26811;53.160;8.202;2022-09-09T07:34:08;29.17;;;11.82;;
41059;SDS011;26811;53.160;8.202;2022-09-09T07:39:10;32.65;;;12.18;;
41059;SDS011;26811;53.160;8.202;2022-09-09T07:44:18;31.58;;;12.23;;
41059;SDS011;26811;53.160;8.202;2022-09-09T07:49:24;35.70;;;13.65;;
41059;SDS011;26811;53.160;8.202;2022-09-09T07:54:25;30.65;;;12.95;;
41059;SDS011;26811;53.160;8.202;2022-09-09T07:59:26;33.72;;;12.77;;
41059;SDS011;26811;53.160;8.202;2022-09-09T08:04:27;32.88;;;12.93;;
41059;SDS011;26811;53.160;8.202;2022-09-09T08:09:28;31.13;;;13.18;;
41059;SDS011;26811;53.160;8.202;2022-09-09T08:14:29;26.35;;;12.85;;
41059;SDS011;26811;53.160;8.202;2022-09-09T08:19:29;27.33;;;12.57;;
41059;SDS011;26811;53.160;8.202;2022-09-09T08:24:30;28.52;;;12.63;;
41059;SDS011;26811;53.160;8.202;2022-09-09T08:29:31;24.73;;;11.93;;
41059;SDS011;26811;53.160;8.202;2022-09-09T08:34:32;25.40;;;11.38;;
41059;SDS011;26811;53.160;8.202;2022-09-09T08:39:32;30.55;;;11.68;;
41059;SDS011;26811;53.160;8.202;2022-09-09T08:49:57;21.55;;;10.52;;
41059;SDS011;26811;53.160;8.202;2022-09-09T09:11:24;17.40;;;6.38;;
41059;SDS011;26811;53.160;8.202;2022-09-09T09:16:35;14.63;;;6.13;;
41059;SDS011;26811;53.160;8.202;2022-09-09T09:21:42;17.98;;;6.25;;
41059;SDS011;26811;53.160;8.202;2022-09-09T09:27:13;17.77;;;8.18;;
41059;SDS011;26811;53.160;8.202;2022-09-09T09:32:16;23.48;;;10.27;;
41059;SDS011;26811;53.160;8.202;2022-09-09T09:37:23;19.15;;;8.40;;
41059;SDS011;26811;53.160;8.202;2022-09-09T09:42:31;20.53;;;8.20;;
41059;SDS011;26811;53.160;8.202;2022-09-09T09:47:31;20.92;;;9.60;;
41059;SDS011;26811;53.160;8.202;2022-09-09T09:52:32;20.80;;;10.25;;
41059;SDS011;26811;53.160;8.202;2022-09-09T09:57:34;28.02;;;11.30;;
41059;SDS011;26811;53.160;8.202;2022-09-09T10:02:37;20.25;;;9.10;;
41059;SDS011;26811;53.160;8.202;2022-09-09T10:07:40;18.80;;;9.10;;
41059;SDS011;26811;53.160;8.202;2022-09-09T10:12:53;24.58;;;9.88;;
41059;SDS011;26811;53.160;8.202;2022-09-09T10:18:35;22.90;;;10.95;;
41059;SDS011;26811;53.160;8.202;2022-09-09T10:29:15;21.42;;;7.55;;
41059;SDS011;26811;53.160;8.202;2022-09-09T10:34:42;23.80;;;8.07;;
41059;SDS011;26811;53.160;8.202;2022-09-09T10:40:04;26.65;;;8.00;;
41059;SDS011;26811;53.160;8.202;2022-09-09T10:46:03;24.92;;;7.93;;
41059;SDS011;26811;53.160;8.202;2022-09-09T10:56:48;14.60;;;8.25;;
41059;SDS011;26811;53.160;8.202;2022-09-09T11:07:00;17.50;;;8.10;;
41059;SDS011;26811;53.160;8.202;2022-09-09T11:12:06;22.08;;;8.68;;
41059;SDS011;26811;53.160;8.202;2022-09-09T11:17:14;20.55;;;9.25;;
41059;SDS011;26811;53.160;8.202;2022-09-09T11:27:36;24.17;;;9.25;;
41059;SDS011;26811;53.160;8.202;2022-09-09T11:48:25;19.20;;;9.23;;
41059;SDS011;26811;53.160;8.202;2022-09-09T11:53:35;23.13;;;9.93;;
41059;SDS011;26811;53.160;8.202;2022-09-09T12:04:07;29.33;;;11.95;;
41059;SDS011;26811;53.160;8.202;2022-09-09T12:09:18;31.10;;;13.68;;
41059;SDS011;26811;53.160;8.202;2022-09-09T12:14:54;29.23;;;14.93;;
41059;SDS011;26811;53.160;8.202;2022-09-09T12:20:01;34.30;;;13.98;;
41059;SDS011;26811;53.160;8.202;2022-09-09T12:30:28;35.20;;;16.35;;
41059;SDS011;26811;53.160;8.202;2022-09-09T12:35:44;33.55;;;14.60;;
41059;SDS011;26811;53.160;8.202;2022-09-09T12:40:57;35.47;;;15.27;;
41059;SDS011;26811;53.160;8.202;2022-09-09T12:45:59;28.35;;;14.35;;
41059;SDS011;26811;53.160;8.202;2022-09-09T12:51:16;40.42;;;15.85;;
41059;SDS011;26811;53.160;8.202;2022-09-09T12:56:21;36.45;;;16.42;;
41059;SDS011;26811;53.160;8.202;2022-09-09T13:01:30;36.22;;;16.55;;
41059;SDS011;26811;53.160;8.202;2022-09-09T13:06:33;29.52;;;15.43;;
41059;SDS011;26811;53.160;8.202;2022-09-09T13:11:43;35.25;;;14.93;;
41059;SDS011;26811;53.160;8.202;2022-09-09T13:16:59;31.05;;;13.77;;
41059;SDS011;26811;53.160;8.202;2022-09-09T13:22:11;24.05;;;12.40;;
41059;SDS011;26811;53.160;8.202;2022-09-09T13:27:30;31.97;;;14.07;;
41059;SDS011;26811;53.160;8.202;2022-09-09T13:32:38;31.10;;;14.57;;
41059;SDS011;26811;53.160;8.202;2022-09-09T13:37:39;30.40;;;14.80;;
41059;SDS011;26811;53.160;8.202;2022-09-09T13:42:44;31.35;;;14.32;;
41059;SDS011;26811;53.160;8.202;2022-09-09T13:47:44;36.50;;;17.80;;
41059;SDS011;26811;53.160;8.202;2022-09-09T13:52:46;32.40;;;14.45;;
41059;SDS011;26811;53.160;8.202;2022-09-09T13:57:53;34.60;;;15.05;;
41059;SDS011;26811;53.160;8.202;2022-09-09T14:02:57;25.45;;;10.95;;
41059;SDS011;26811;53.160;8.202;2022-09-09T14:07:57;25.27;;;10.27;;
41059;SDS011;26811;53.160;8.202;2022-09-09T14:18:01;14.32;;;8.30;;
41059;SDS011;26811;53.160;8.202;2022-09-09T14:23:02;11.85;;;7.40;;
41059;SDS011;26811;53.160;8.202;2022-09-09T14:28:02;17.17;;;7.93;;
41059;SDS011;26811;53.160;8.202;2022-09-09T14:33:03;17.23;;;8.90;;
41059;SDS011;26811;53.160;8.202;2022-09-09T14:38:04;18.23;;;8.48;;
41059;SDS011;26811;53.160;8.202;2022-09-09T14:43:05;21.27;;;8.80;;
41059;SDS011;26811;53.160;8.202;2022-09-09T14:48:05;17.10;;;8.95;;
41059;SDS011;26811;53.160;8.202;2022-09-09T14:53:06;17.13;;;8.02;;
41059;SDS011;26811;53.160;8.202;2022-09-09T14:58:08;15.90;;;7.82;;
41059;SDS011;26811;53.160;8.202;2022-09-09T15:03:09;21.98;;;8.45;;
41059;SDS011;26811;53.160;8.202;2022-09-09T15:08:10;25.42;;;11.52;;
41059;SDS011;26811;53.160;8.202;2022-09-09T15:13:11;18.23;;;8.90;;
41059;SDS011;26811;53.160;8.202;2022-09-09T15:18:11;18.13;;;9.13;;
41059;SDS011;26811;53.160;8.202;2022-09-09T15:23:13;21.15;;;8.35;;
41059;SDS011;26811;53.160;8.202;2022-09-09T15:28:14;15.30;;;7.18;;
41059;SDS011;26811;53.160;8.202;2022-09-09T15:33:15;15.43;;;6.95;;
41059;SDS011;26811;53.160;8.202;2022-09-09T15:38:16;22.85;;;7.35;;
41059;SDS011;26811;53.160;8.202;2022-09-09T15:43:17;15.77;;;6.75;;
41059;SDS011;26811;53.160;8.202;2022-09-09T15:48:17;17.13;;;6.75;;
41059;SDS011;26811;53.160;8.202;2022-09-09T15:53:19;16.67;;;7.68;;
41059;SDS011;26811;53.160;8.202;2022-09-09T15:58:20;20.73;;;7.80;;
41059;SDS011;26811;53.160;8.202;2022-09-09T16:03:20;14.05;;;7.35;;
41059;SDS011;26811;53.160;8.202;2022-09-09T16:08:21;15.10;;;8.10;;
41059;SDS011;26811;53.160;8.202;2022-09-09T16:13:21;17.45;;;7.35;;
41059;SDS011;26811;53.160;8.202;2022-09-09T16:18:22;12.23;;;6.97;;
41059;SDS011;26811;53.160;8.202;2022-09-09T16:23:23;14.60;;;7.32;;
41059;SDS011;26811;53.160;8.202;2022-09-09T16:28:24;19.13;;;7.57;;
41059;SDS011;26811;53.160;8.202;2022-09-09T16:33:25;17.65;;;7.65;;
41059;SDS011;26811;53.160;8.202;2022-09-09T16:38:26;18.85;;;8.20;;
41059;SDS011;26811;53.160;8.202;2022-09-09T16:43:27;21.88;;;8.90;;
41059;SDS011;26811;53.160;8.202;2022-09-09T16:48:33;21.77;;;9.38;;
41059;SDS011;26811;53.160;8.202;2022-09-09T16:53:34;21.75;;;9.20;;
41059;SDS011;26811;53.160;8.202;2022-09-09T16:58:34;17.70;;;9.10;;
41059;SDS011;26811;53.160;8.202;2022-09-09T17:03:35;18.50;;;8.55;;
41059;SDS011;26811;53.160;8.202;2022-09-09T17:08:37;25.40;;;11.13;;
41059;SDS011;26811;53.160;8.202;2022-09-09T17:13:39;24.10;;;12.13;;
41059;SDS011;26811;53.160;8.202;2022-09-09T17:18:43;30.83;;;13.30;;
41059;SDS011;26811;53.160;8.202;2022-09-09T17:23:44;28.20;;;12.45;;
41059;SDS011;26811;53.160;8.202;2022-09-09T17:28:45;25.98;;;10.90;;
41059;SDS011;26811;53.160;8.202;2022-09-09T17:33:47;30.25;;;12.50;;
41059;SDS011;26811;53.160;8.202;2022-09-09T17:38:55;25.85;;;12.00;;
41059;SDS011;26811;53.160;8.202;2022-09-09T17:43:56;28.17;;;13.25;;
41059;SDS011;26811;53.160;8.202;2022-09-09T17:48:59;22.15;;;11.02;;
41059;SDS011;26811;53.160;8.202;2022-09-09T17:54:02;19.52;;;8.95;;
41059;SDS011;26811;53.160;8.202;2022-09-09T17:59:14;16.52;;;8.95;;
41059;SDS011;26811;53.160;8.202;2022-09-09T18:04:16;20.92;;;10.25;;
41059;SDS011;26811;53.160;8.202;2022-09-09T18:09:21;19.83;;;8.20;;
41059;SDS011;26811;53.160;8.202;2022-09-09T18:14:25;20.63;;;8.38;;
41059;SDS011;26811;53.160;8.202;2022-09-09T18:19:29;19.48;;;9.55;;
41059;SDS011;26811;53.160;8.202;2022-09-09T18:29:32;24.75;;;8.57;;
41059;SDS011;26811;53.160;8.202;2022-09-09T18:34:33;19.42;;;9.80;;
41059;SDS011;26811;53.160;8.202;2022-09-09T18:39:34;21.45;;;10.95;;
41059;SDS011;26811;53.160;8.202;2022-09-09T18:44:35;24.40;;;11.73;;
41059;SDS011;26811;53.160;8.202;2022-09-09T18:49:36;22.60;;;10.80;;
41059;SDS011;26811;53.160;8.202;2022-09-09T18:54:36;23.90;;;10.85;;
41059;SDS011;26811;53.160;8.202;2022-09-09T18:59:37;26.90;;;11.98;;
41059;SDS011;26811;53.160;8.202;2022-09-09T19:04:37;26.08;;;12.60;;
41059;SDS011;26811;53.160;8.202;2022-09-09T19:09:38;23.88;;;11.60;;
41059;SDS011;26811;53.160;8.202;2022-09-09T19:14:38;20.00;;;11.25;;
41059;SDS011;26811;53.160;8.202;2022-09-09T19:19:39;18.30;;;11.65;;
41059;SDS011;26811;53.160;8.202;2022-09-09T19:24:41;19.88;;;11.02;;
41059;SDS011;26811;53.160;8.202;2022-09-09T19:29:43;19.87;;;11.23;;
41059;SDS011;26811;53.160;8.202;2022-09-09T19:34:44;24.17;;;12.02;;
41059;SDS011;26811;53.160;8.202;2022-09-09T19:39:45;23.40;;;11.70;;
41059;SDS011;26811;53.160;8.202;2022-09-09T19:44:46;30.27;;;13.75;;
41059;SDS011;26811;53.160;8.202;2022-09-09T19:49:46;28.33;;;12.68;;
41059;SDS011;26811;53.160;8.202;2022-09-09T19:54:47;24.50;;;12.55;;
41059;SDS011;26811;53.160;8.202;2022-09-09T19:59:47;29.50;;;13.50;;
41059;SDS011;26811;53.160;8.202;2022-09-09T20:04:48;24.42;;;12.30;;
41059;SDS011;26811;53.160;8.202;2022-09-09T20:09:49;21.55;;;11.43;;
41059;SDS011;26811;53.160;8.202;2022-09-09T20:14:51;24.38;;;11.57;;
41059;SDS011;26811;53.160;8.202;2022-09-09T20:19:53;28.17;;;12.40;;
41059;SDS011;26811;53.160;8.202;2022-09-09T20:24:54;29.00;;;13.30;;
41059;SDS011;26811;53.160;8.202;2022-09-09T20:29:54;26.13;;;12.18;;
41059;SDS011;26811;53.160;8.202;2022-09-09T20:34:55;28.65;;;13.32;;
41059;SDS011;26811;53.160;8.202;2022-09-09T20:39:55;28.30;;;13.57;;
41059;SDS011;26811;53.160;8.202;2022-09-09T20:44:56;36.15;;;15.43;;
41059;SDS011;26811;53.160;8.202;2022-09-09T20:49:57;29.33;;;15.50;;
41059;SDS011;26811;53.160;8.202;2022-09-09T20:54:59;33.53;;;15.77;;
41059;SDS011;26811;53.160;8.202;2022-09-09T20:59:59;38.20;;;16.05;;
41059;SDS011;26811;53.160;8.202;2022-09-09T21:05:00;32.38;;;17.15;;
41059;SDS011;26811;53.160;8.202;2022-09-09T21:10:01;36.28;;;16.90;;
41059;SDS011;26811;53.160;8.202;2022-09-09T21:15:01;38.45;;;16.90;;
41059;SDS011;26811;53.160;8.202;2022-09-09T21:20:02;47.25;;;18.63;;
41059;SDS011;26811;53.160;8.202;2022-09-09T21:25:05;43.45;;;18.77;;
41059;SDS011;26811;53.160;8.202;2022-09-09T21:30:06;42.47;;;19.45;;
41059;SDS011;26811;53.160;8.202;2022-09-09T21:35:07;43.42;;;20.02;;
41059;SDS011;26811;53.160;8.202;2022-09-09T21:40:10;47.22;;;21.00;;
41059;SDS011;26811;53.160;8.202;2022-09-09T21:45:11;44.85;;;20.33;;
41059;SDS011;26811;53.160;8.202;2022-09-09T21:50:13;47.38;;;19.27;;
41059;SDS011;26811;53.160;8.202;2022-09-09T21:55:15;44.60;;;19.42;;
41059;SDS011;26811;53.160;8.202;2022-09-09T22:00:15;41.50;;;19.27;;
41059;SDS011;26811;53.160;8.202;2022-09-09T22:05:17;44.25;;;20.23;;
41059;SDS011;26811;53.160;8.202;2022-09-09T22:10:18;42.60;;;20.55;;
41059;SDS011;26811;53.160;8.202;2022-09-09T22:15:20;38.17;;;20.40;;
41059;SDS011;26811;53.160;8.202;2022-09-09T22:20:20;48.67;;;20.88;;
41059;SDS011;26811;53.160;8.202;2022-09-09T22:25:21;37.70;;;19.23;;
41059;SDS011;26811;53.160;8.202;2022-09-09T22:30:21;36.53;;;17.90;;
41059;SDS011;26811;53.160;8.202;2022-09-09T22:35:22;36.70;;;17.38;;
41059;SDS011;26811;53.160;8.202;2022-09-09T22:40:23;38.55;;;16.83;;
41059;SDS011;26811;53.160;8.202;2022-09-09T22:45:24;30.42;;;15.65;;
41059;SDS011;26811;53.160;8.202;2022-09-09T22:50:24;34.70;;;14.38;;
41059;SDS011;26811;53.160;8.202;2022-09-09T22:55:26;35.30;;;14.17;;
41059;SDS011;26811;53.160;8.202;2022-09-09T23:00:27;33.45;;;14.18;;
41059;SDS011;26811;53.160;8.202;2022-09-09T23:05:28;25.27;;;13.45;;
41059;SDS011;26811;53.160;8.202;2022-09-09T23:10:29;29.50;;;13.65;;
41059;SDS011;26811;53.160;8.202;2022-09-09T23:15:32;28.80;;;13.68;;
41059;SDS011;26811;53.160;8.202;2022-09-09T23:20:32;31.13;;;13.20;;
41059;SDS011;26811;53.160;8.202;2022-09-09T23:25:34;32.63;;;13.20;;
41059;SDS011;26811;53.160;8.202;2022-09-09T23:30:37;23.90;;;12.90;;
41059;SDS011;26811;53.160;8.202;2022-09-09T23:35:40;30.27;;;13.95;;
41059;SDS011;26811;53.160;8.202;2022-09-09T23:40:41;27.17;;;12.82;;
41059;SDS011;26811;53.160;8.202;2022-09-09T23:45:44;26.33;;;11.55;;
41059;SDS011;26811;53.160;8.202;2022-09-09T23:50:45;31.38;;;12.57;;
41059;SDS011;26811;53.160;8.202;2022-09-09T23:55:49;22.52;;;11.60;;
